createdAt,value
2022-08-20T00:01:16.515Z,31.50
2022-08-20T00:06:18.270Z,18.38
2022-08-20T00:11:19.838Z,17.33
2022-08-20T00:16:21.417Z,23.88
2022-08-20T00:21:23.367Z,17.75
2022-08-20T00:26:27.189Z,15.00
2022-08-20T00:31:28.908Z,17.98
2022-08-20T00:36:32.549Z,16.90
2022-08-20T00:41:34.620Z,21.20
2022-08-20T00:46:36.471Z,20.48
2022-08-20T00:51:38.018Z,20.20
2022-08-20T00:56:42.108Z,24.17
2022-08-20T01:01:55.269Z,24.85
2022-08-20T01:06:57.832Z,21.67
2022-08-20T01:11:59.404Z,23.38
2022-08-20T01:17:00.994Z,24.30
2022-08-20T01:22:02.759Z,28.13
2022-08-20T01:27:04.508Z,32.42
2022-08-20T01:32:06.287Z,36.03
2022-08-20T01:37:08.029Z,34.72
2022-08-20T01:42:09.662Z,36.97
2022-08-20T01:47:11.321Z,39.50
2022-08-20T01:52:12.978Z,40.22
2022-08-20T01:57:14.717Z,36.47
2022-08-20T02:02:16.489Z,42.25
2022-08-20T02:07:18.235Z,45.75
2022-08-20T02:12:19.821Z,42.00
2022-08-20T02:17:21.428Z,37.35
2022-08-20T02:22:23.199Z,41.53
2022-08-20T02:27:25.900Z,41.75
2022-08-20T02:32:34.168Z,47.40
2022-08-20T02:37:36.304Z,43.95
2022-08-20T02:42:38.048Z,46.90
2022-08-20T02:47:39.812Z,50.15
2022-08-20T02:52:41.539Z,55.67
2022-08-20T02:57:53.586Z,41.83
2022-08-20T03:02:59.199Z,45.70
2022-08-20T03:08:00.926Z,52.08
2022-08-20T03:13:02.678Z,44.80
2022-08-20T03:18:04.437Z,47.40
2022-08-20T03:23:06.160Z,55.45
2022-08-20T03:28:07.961Z,56.55
2022-08-20T03:33:09.578Z,62.67
2022-08-20T03:38:11.134Z,47.42
2022-08-20T03:43:12.900Z,53.30
2022-08-20T03:48:14.641Z,49.58
2022-08-20T03:53:16.379Z,53.45
2022-08-20T03:58:18.147Z,55.25
2022-08-20T04:03:19.781Z,54.17
2022-08-20T04:08:21.665Z,53.00
2022-08-20T04:13:23.665Z,54.63
2022-08-20T04:18:25.516Z,60.20
2022-08-20T04:23:27.218Z,58.63
2022-08-20T04:28:28.920Z,71.30
2022-08-20T04:33:35.405Z,64.80
2022-08-20T04:38:50.068Z,65.55
2022-08-20T04:43:52.442Z,61.63
2022-08-20T04:48:54.182Z,61.22
2022-08-20T04:53:55.939Z,60.28
2022-08-20T04:58:57.703Z,51.25
2022-08-20T05:03:59.428Z,54.45
2022-08-20T05:09:01.098Z,54.10
2022-08-20T05:14:02.923Z,52.33
2022-08-20T05:19:04.487Z,48.85
2022-08-20T05:24:06.108Z,50.63
2022-08-20T05:29:07.867Z,53.00
2022-08-20T05:34:10.073Z,57.50
2022-08-20T05:39:12.665Z,49.28
2022-08-20T05:44:14.399Z,52.95
2022-08-20T05:49:16.142Z,72.38
2022-08-20T05:54:17.912Z,55.97
2022-08-20T05:59:23.911Z,53.92
2022-08-20T06:04:25.813Z,51.53
2022-08-20T06:09:31.374Z,57.47
2022-08-20T06:14:34.025Z,56.08
2022-08-20T06:19:35.594Z,53.08
2022-08-20T06:24:38.154Z,48.97
2022-08-20T06:29:39.781Z,46.03
2022-08-20T06:34:50.004Z,48.20
2022-08-20T06:39:52.886Z,44.38
2022-08-20T06:44:55.512Z,49.08
2022-08-20T06:49:57.250Z,34.67
2022-08-20T06:54:59.065Z,39.80
2022-08-20T07:00:00.621Z,43.15
2022-08-20T07:05:02.186Z,41.83
2022-08-20T07:10:03.760Z,45.78
2022-08-20T07:15:05.412Z,45.33
2022-08-20T07:20:07.175Z,41.50
2022-08-20T07:25:08.925Z,38.83
2022-08-20T07:30:12.907Z,38.08
2022-08-20T07:35:17.101Z,42.58
2022-08-20T07:40:21.354Z,45.65
2022-08-20T07:45:26.889Z,41.88
2022-08-20T07:50:28.439Z,40.90
2022-08-20T07:55:30.095Z,37.67
2022-08-20T08:00:31.701Z,43.35
2022-08-20T08:05:33.299Z,38.97
2022-08-20T08:10:34.966Z,44.40
2022-08-20T08:15:36.684Z,39.67
2022-08-20T08:20:38.251Z,37.63
2022-08-20T08:25:48.769Z,38.42
2022-08-20T08:30:50.541Z,40.78
2022-08-20T08:35:52.112Z,36.95
2022-08-20T08:40:59.188Z,33.60
2022-08-20T08:46:02.051Z,34.95
2022-08-20T08:51:03.808Z,33.28
2022-08-20T08:56:05.384Z,30.95
2022-08-20T09:01:11.670Z,33.97
2022-08-20T09:06:15.648Z,34.05
2022-08-20T09:11:17.259Z,32.78
2022-08-20T09:16:18.838Z,31.45
2022-08-20T09:21:20.590Z,32.17
2022-08-20T09:26:22.362Z,33.20
2022-08-20T09:31:30.705Z,30.40
2022-08-20T09:36:33.003Z,30.45
2022-08-20T09:41:34.868Z,29.38
2022-08-20T09:46:36.654Z,28.30
2022-08-20T09:51:38.462Z,28.95
2022-08-20T09:56:40.080Z,27.67
2022-08-20T10:01:41.947Z,25.90
2022-08-20T10:06:43.591Z,31.40
2022-08-20T10:11:45.160Z,26.63
2022-08-20T10:16:46.820Z,27.00
2022-08-20T10:21:48.545Z,27.85
2022-08-20T10:26:50.279Z,26.55
2022-08-20T10:31:52.048Z,26.20
2022-08-20T10:36:53.652Z,21.33
2022-08-20T10:41:55.245Z,24.02
2022-08-20T10:46:57.295Z,24.05
2022-08-20T10:51:59.062Z,25.00
2022-08-20T10:57:01.448Z,24.55
2022-08-20T11:02:03.144Z,25.80
2022-08-20T11:07:04.902Z,23.75
2022-08-20T11:12:06.459Z,23.52
2022-08-20T11:17:08.144Z,24.00
2022-08-20T11:22:09.795Z,21.55
2022-08-20T11:27:11.568Z,23.17
2022-08-20T11:32:13.227Z,21.58
2022-08-20T11:37:14.849Z,26.55
2022-08-20T11:42:16.605Z,21.05
2022-08-20T11:47:18.362Z,23.42
2022-08-20T11:52:20.115Z,23.20
2022-08-20T11:57:21.866Z,23.35
2022-08-20T12:02:23.490Z,24.58
2022-08-20T12:07:25.062Z,25.50
2022-08-20T12:12:26.823Z,24.40
2022-08-20T12:17:28.427Z,25.42
2022-08-20T12:22:29.998Z,23.55
2022-08-20T12:27:31.660Z,21.75
2022-08-20T12:32:33.336Z,21.17
2022-08-20T12:37:34.972Z,26.17
2022-08-20T12:42:36.644Z,25.10
2022-08-20T12:47:38.329Z,27.45
2022-08-20T12:52:39.908Z,27.10
2022-08-20T12:57:41.662Z,23.02
2022-08-20T13:02:43.417Z,20.92
2022-08-20T13:07:45.174Z,25.58
2022-08-20T13:12:46.699Z,23.30
2022-08-20T13:17:48.373Z,26.33
2022-08-20T13:22:50.182Z,25.35
2022-08-20T13:27:51.823Z,22.23
2022-08-20T13:32:53.650Z,21.90
2022-08-20T13:37:55.283Z,25.95
2022-08-20T13:42:57.110Z,22.60
2022-08-20T13:47:58.921Z,23.65
2022-08-20T13:53:00.653Z,22.35
2022-08-20T13:58:04.311Z,22.13
2022-08-20T14:03:06.055Z,24.70
2022-08-20T14:08:07.817Z,26.95
2022-08-20T14:13:12.261Z,24.02
2022-08-20T14:18:16.966Z,23.80
2022-08-20T14:23:18.717Z,27.98
2022-08-20T14:28:22.459Z,24.05
2022-08-20T14:33:24.103Z,28.88
2022-08-20T14:38:25.860Z,29.98
2022-08-20T14:43:27.614Z,26.35
2022-08-20T14:48:29.368Z,34.38
2022-08-20T14:53:31.113Z,43.00
2022-08-20T14:58:32.860Z,44.85
2022-08-20T15:03:34.518Z,43.60
2022-08-20T15:08:36.087Z,47.70
2022-08-20T15:13:37.813Z,46.67
2022-08-20T15:18:39.643Z,47.28
2022-08-20T15:23:41.293Z,22.38
2022-08-20T15:28:43.081Z,19.92
2022-08-20T15:33:44.816Z,16.17
2022-08-20T15:38:46.548Z,0.40
2022-08-20T15:43:49.361Z,1.10
2022-08-20T15:48:50.918Z,0.10
2022-08-20T15:53:52.506Z,12.90
2022-08-20T16:04:13.947Z,20.42
2022-08-20T16:09:15.669Z,15.00
2022-08-20T16:14:17.367Z,15.52
2022-08-20T16:19:19.125Z,20.63
2022-08-20T16:24:20.781Z,25.13
2022-08-20T16:29:24.639Z,28.17
2022-08-20T16:34:33.499Z,21.90
2022-08-20T16:39:35.809Z,19.25
2022-08-20T16:44:37.582Z,23.42
2022-08-20T16:49:39.162Z,17.50
2022-08-20T16:54:41.168Z,19.75
2022-08-20T16:59:42.760Z,22.17
2022-08-20T17:04:44.584Z,22.98
2022-08-20T17:10:00.468Z,17.15
2022-08-20T17:15:04.711Z,18.05
2022-08-20T17:20:06.511Z,18.45
2022-08-20T17:25:08.099Z,15.55
2022-08-20T17:30:09.665Z,25.58
2022-08-20T17:35:11.432Z,18.35
2022-08-20T17:40:13.137Z,20.70
2022-08-20T17:45:14.932Z,17.00
2022-08-20T17:50:16.500Z,15.27
2022-08-20T17:55:18.126Z,15.88
2022-08-20T18:00:19.677Z,17.80
2022-08-20T18:05:21.331Z,14.73
2022-08-20T18:10:23.018Z,16.90
2022-08-20T18:15:25.046Z,15.80
2022-08-20T18:20:26.652Z,17.15
2022-08-20T18:25:28.227Z,16.70
2022-08-20T18:30:29.807Z,17.30
2022-08-20T18:35:31.540Z,17.67
2022-08-20T18:40:33.591Z,19.63
2022-08-20T18:45:35.170Z,20.60
2022-08-20T18:50:36.828Z,20.60
2022-08-20T18:55:38.599Z,22.20
2022-08-20T19:00:40.403Z,19.63
2022-08-20T19:05:42.024Z,23.52
2022-08-20T19:10:43.766Z,23.27
2022-08-20T19:15:45.564Z,21.45
2022-08-20T19:20:47.554Z,24.45
2022-08-20T19:25:49.127Z,20.17
2022-08-20T19:30:50.874Z,22.40
2022-08-20T19:35:52.477Z,18.95
2022-08-20T19:40:58.389Z,19.27
2022-08-20T19:46:13.434Z,24.33
2022-08-20T19:51:15.120Z,27.33
2022-08-20T19:56:16.846Z,28.35
2022-08-20T20:01:18.675Z,28.42
2022-08-20T20:06:20.351Z,33.35
2022-08-20T20:11:21.995Z,38.28
2022-08-20T20:16:24.559Z,35.08
2022-08-20T20:21:26.144Z,31.38
2022-08-20T20:26:28.002Z,42.63
2022-08-20T20:31:29.769Z,34.85
2022-08-20T20:36:31.424Z,33.00
2022-08-20T20:41:36.088Z,35.22
2022-08-20T20:46:38.477Z,30.67
2022-08-20T20:51:40.435Z,28.45
2022-08-20T20:56:44.212Z,23.10
2022-08-20T21:01:50.217Z,26.85
2022-08-20T21:06:52.059Z,33.90
2022-08-20T21:11:53.669Z,32.78
2022-08-20T21:16:57.266Z,38.88
2022-08-20T21:21:58.950Z,31.98
2022-08-20T21:27:02.894Z,33.17
2022-08-20T21:32:04.584Z,31.67
2022-08-20T21:37:06.350Z,30.63
2022-08-20T21:42:21.033Z,33.20
2022-08-20T21:47:29.921Z,33.13
2022-08-20T21:52:31.655Z,41.22
2022-08-20T21:57:33.403Z,41.20
2022-08-20T22:02:35.163Z,41.55
2022-08-20T22:07:36.934Z,41.05
2022-08-20T22:12:38.666Z,35.70
2022-08-20T22:17:40.319Z,37.45
2022-08-20T22:22:42.170Z,34.83
2022-08-20T22:27:47.714Z,31.50
2022-08-20T22:32:51.564Z,29.00
2022-08-20T22:37:54.019Z,30.95
2022-08-20T22:42:55.771Z,31.77
2022-08-20T22:47:57.532Z,32.00
2022-08-20T22:52:59.422Z,30.17
2022-08-20T22:58:01.137Z,32.22
2022-08-20T23:03:02.788Z,34.72
2022-08-20T23:08:04.538Z,33.40
2022-08-20T23:13:06.141Z,35.60
2022-08-20T23:18:07.744Z,39.10
2022-08-20T23:23:09.399Z,37.47
2022-08-20T23:28:10.951Z,42.30
2022-08-20T23:33:12.695Z,42.08
2022-08-20T23:38:15.509Z,35.10
2022-08-20T23:43:17.144Z,37.30
2022-08-20T23:48:18.904Z,36.95
2022-08-20T23:53:20.640Z,42.13
2022-08-20T23:58:22.399Z,39.92
